M.y. Libra Star — 3ALV — position and weather

sailwx.info

Track history (hours):
 
Tides and Currents Weather Stations Pressure Air Temp Water Temp Dewpoint Dewpoint Depression Visibility Wind Speed Wind Dir Waves Ship Positions

M.y. Libra Star

Last reported at 2015-May-19 16:29 UTC. Time now 2015-May-28 22:14 UTC.
Position N 43°40' E 007°20'.
Warning: this ship's position is 9 days out of date.

Length 40 m; draft 3 m.

Type: Pleasure craft. MMSI: 254450000.

Date/timePositionNaut miles runAvg speedWind from/ knotsBaromVisibWave heightAir tempDewpointWater temp
2015-May-19 16:29N 43°40' E 007°20'2 1.7
2015-May-19 15:33N 43°42' E 007°19'0 0.0
2015-May-19 14:30N 43°42' E 007°19'0 0.0
2015-May-19 13:33N 43°42' E 007°19'0 0.0
2015-May-19 12:33N 43°42' E 007°19'0 0.0
2015-May-19 11:17N 43°42' E 007°19'0 0.0
2015-May-19 10:23N 43°42' E 007°19'0 0.0
2015-May-19 09:27N 43°42' E 007°19'0 0.0
2015-May-19 08:32N 43°42' E 007°19'2 1.9
2015-May-19 07:33N 43°43' E 007°22'2 2.2
2015-May-19 06:33N 43°43' E 007°25'2 0.2
2015-May-18 20:22N 43°44' E 007°26'5 0.2
2015-May-17 16:09N 43°40' E 007°21'814.3
2015-May-17 15:33N 43°35' E 007°12'  
2015-May-13 21:19N 43°29' E 006°59'4 1.3
2015-May-13 18:26N 43°32' E 007°01'1112.2
2015-May-13 17:33N 43°37' E 007°15'11 0.4
2015-May-12 11:15N 43°44' E 007°26'0 0.0
2015-May-12 02:15N 43°44' E 007°26'0 0.0
2015-May-11 17:18N 43°44' E 007°26'0 0.0
2015-May-10 07:04N 43°44' E 007°26'0 0.0
2015-May-10 06:32N 43°44' E 007°26'0 0.0
2015-May-10 05:28N 43°44' E 007°26'0 0.0
2015-May-10 04:07N 43°44' E 007°26'0 0.0
2015-May-10 03:33N 43°44' E 007°26'0 0.0
2015-May-10 02:33N 43°44' E 007°26'0 0.0
2015-May-10 01:21N 43°44' E 007°26'0 0.0
2015-May-10 00:30N 43°44' E 007°26'0 0.0
2015-May-09 23:17N 43°44' E 007°26'0 0.0
2015-May-09 22:30N 43°44' E 007°26'0 0.0
2015-May-09 16:31N 43°44' E 007°26'  
Track history (hours):
 
Tides and Currents Weather Stations Pressure Air Temp Water Temp Dewpoint Dewpoint Depression Visibility Wind Speed Wind Dir Waves Ship Positions

M.y. Libra Star

Last reported at 2015-May-19 16:29 UTC. Time now 2015-May-28 22:14 UTC.
Position N 43°40' E 007°20'.
Warning: this ship's position is 9 days out of date.

Length 40 m; draft 3 m.

Type: Pleasure craft. MMSI: 254450000.

Date/timePositionNaut miles runAvg speedWind from/ knotsBaromVisibWave heightAir tempDewpointWater temp
2015-May-19 16:29N 43°40' E 007°20'2 1.7
2015-May-19 15:33N 43°42' E 007°19'0 0.0
2015-May-19 14:30N 43°42' E 007°19'0 0.0
2015-May-19 13:33N 43°42' E 007°19'0 0.0
2015-May-19 12:33N 43°42' E 007°19'0 0.0
2015-May-19 11:17N 43°42' E 007°19'0 0.0
2015-May-19 10:23N 43°42' E 007°19'0 0.0
2015-May-19 09:27N 43°42' E 007°19'0 0.0
2015-May-19 08:32N 43°42' E 007°19'2 1.9
2015-May-19 07:33N 43°43' E 007°22'2 2.2
2015-May-19 06:33N 43°43' E 007°25'2 0.2
2015-May-18 20:22N 43°44' E 007°26'5 0.2
2015-May-17 16:09N 43°40' E 007°21'814.3
2015-May-17 15:33N 43°35' E 007°12'  
2015-May-13 21:19N 43°29' E 006°59'4 1.3
2015-May-13 18:26N 43°32' E 007°01'1112.2
2015-May-13 17:33N 43°37' E 007°15'11 0.4
2015-May-12 11:15N 43°44' E 007°26'0 0.0
2015-May-12 02:15N 43°44' E 007°26'0 0.0
2015-May-11 17:18N 43°44' E 007°26'0 0.0
2015-May-10 07:04N 43°44' E 007°26'0 0.0
2015-May-10 06:32N 43°44' E 007°26'0 0.0
2015-May-10 05:28N 43°44' E 007°26'0 0.0
2015-May-10 04:07N 43°44' E 007°26'0 0.0
2015-May-10 03:33N 43°44' E 007°26'0 0.0
2015-May-10 02:33N 43°44' E 007°26'0 0.0
2015-May-10 01:21N 43°44' E 007°26'0 0.0
2015-May-10 00:30N 43°44' E 007°26'0 0.0
2015-May-09 23:17N 43°44' E 007°26'0 0.0
2015-May-09 22:30N 43°44' E 007°26'0 0.0
2015-May-09 16:31N 43°44' E 007°26'  

Dump ship's entire track history